sensor_id;sensor_type;location;lat;lon;timestamp;pressure;altitude;pressure_sealevel;temperature;humidity
14242;BME280;7205;50.864;12.766;2022-07-29T00:01:14;97715.22;;;17.18;44.77
14242;BME280;7205;50.864;12.766;2022-07-29T00:03:40;97714.56;;;17.22;44.67
14242;BME280;7205;50.864;12.766;2022-07-29T00:06:07;97705.28;;;17.25;44.53
14242;BME280;7205;50.864;12.766;2022-07-29T00:08:37;97706.50;;;17.29;44.09
14242;BME280;7205;50.864;12.766;2022-07-29T00:11:04;97699.91;;;17.31;43.99
14242;BME280;7205;50.864;12.766;2022-07-29T00:13:31;97696.81;;;17.34;43.88
14242;BME280;7205;50.864;12.766;2022-07-29T00:15:58;97692.91;;;17.37;43.63
14242;BME280;7205;50.864;12.766;2022-07-29T00:18:25;97692.06;;;17.36;43.83
14242;BME280;7205;50.864;12.766;2022-07-29T00:20:53;97684.44;;;17.40;43.65
14242;BME280;7205;50.864;12.766;2022-07-29T00:23:20;97684.22;;;17.41;43.55
14242;BME280;7205;50.864;12.766;2022-07-29T00:25:48;97676.22;;;17.41;43.62
14242;BME280;7205;50.864;12.766;2022-07-29T00:28:17;97670.09;;;17.41;43.67
14242;BME280;7205;50.864;12.766;2022-07-29T00:30:46;97663.69;;;17.42;43.72
14242;BME280;7205;50.864;12.766;2022-07-29T00:33:13;97665.13;;;17.44;43.94
14242;BME280;7205;50.864;12.766;2022-07-29T00:35:44;97650.13;;;17.43;43.89
14242;BME280;7205;50.864;12.766;2022-07-29T00:38:10;97655.06;;;17.46;43.71
14242;BME280;7205;50.864;12.766;2022-07-29T00:40:39;97655.06;;;17.46;43.96
14242;BME280;7205;50.864;12.766;2022-07-29T00:43:17;97653.00;;;17.48;44.11
14242;BME280;7205;50.864;12.766;2022-07-29T00:45:45;97641.28;;;17.49;44.07
14242;BME280;7205;50.864;12.766;2022-07-29T00:48:17;97646.41;;;17.51;44.09
14242;BME280;7205;50.864;12.766;2022-07-29T00:50:44;97637.97;;;17.54;44.06
14242;BME280;7205;50.864;12.766;2022-07-29T00:53:17;97638.34;;;17.58;44.19
14242;BME280;7205;50.864;12.766;2022-07-29T00:55:53;97633.81;;;17.58;44.41
14242;BME280;7205;50.864;12.766;2022-07-29T00:58:22;97635.00;;;17.62;44.46
14242;BME280;7205;50.864;12.766;2022-07-29T01:00:54;97630.03;;;17.66;44.72
14242;BME280;7205;50.864;12.766;2022-07-29T01:03:24;97632.50;;;17.67;44.79
14242;BME280;7205;50.864;12.766;2022-07-29T01:05:51;97637.38;;;17.70;45.04
14242;BME280;7205;50.864;12.766;2022-07-29T01:08:20;97627.53;;;17.71;44.83
14242;BME280;7205;50.864;12.766;2022-07-29T01:10:47;97630.81;;;17.73;44.80
14242;BME280;7205;50.864;12.766;2022-07-29T01:13:16;97631.63;;;17.73;44.91
14242;BME280;7205;50.864;12.766;2022-07-29T01:15:51;97635.69;;;17.76;44.99
14242;BME280;7205;50.864;12.766;2022-07-29T01:18:32;97626.84;;;17.75;45.00
14242;BME280;7205;50.864;12.766;2022-07-29T01:21:21;97631.41;;;17.75;45.06
14242;BME280;7205;50.864;12.766;2022-07-29T01:24:14;97634.06;;;17.75;45.25
14242;BME280;7205;50.864;12.766;2022-07-29T01:26:52;97627.69;;;17.76;45.40
14242;BME280;7205;50.864;12.766;2022-07-29T01:29:32;97629.13;;;17.78;45.48
14242;BME280;7205;50.864;12.766;2022-07-29T01:32:06;97628.28;;;17.78;45.57
14242;BME280;7205;50.864;12.766;2022-07-29T01:34:41;97631.56;;;17.80;45.63
14242;BME280;7205;50.864;12.766;2022-07-29T01:37:20;97634.81;;;17.82;45.61
14242;BME280;7205;50.864;12.766;2022-07-29T01:39:51;97627.16;;;17.85;45.75
14242;BME280;7205;50.864;12.766;2022-07-29T01:42:27;97627.78;;;17.87;45.58
14242;BME280;7205;50.864;12.766;2022-07-29T01:45:08;97632.09;;;17.88;45.92
14242;BME280;7205;50.864;12.766;2022-07-29T01:47:46;97627.09;;;17.92;45.99
14242;BME280;7205;50.864;12.766;2022-07-29T01:50:17;97618.66;;;17.95;45.94
14242;BME280;7205;50.864;12.766;2022-07-29T01:52:52;97613.88;;;17.97;45.93
14242;BME280;7205;50.864;12.766;2022-07-29T01:55:22;97615.53;;;17.98;46.02
14242;BME280;7205;50.864;12.766;2022-07-29T01:57:56;97614.25;;;18.00;46.11
14242;BME280;7205;50.864;12.766;2022-07-29T02:00:31;97612.41;;;18.01;46.14
14242;BME280;7205;50.864;12.766;2022-07-29T02:02:59;97614.63;;;18.04;46.25
14242;BME280;7205;50.864;12.766;2022-07-29T02:05:28;97603.94;;;18.04;46.27
14242;BME280;7205;50.864;12.766;2022-07-29T02:08:04;97597.81;;;18.03;46.33
14242;BME280;7205;50.864;12.766;2022-07-29T02:10:39;97595.13;;;18.03;46.34
14242;BME280;7205;50.864;12.766;2022-07-29T02:13:09;97599.19;;;18.06;46.25
14242;BME280;7205;50.864;12.766;2022-07-29T02:15:44;97602.09;;;18.04;46.22
14242;BME280;7205;50.864;12.766;2022-07-29T02:18:15;97594.09;;;18.04;46.35
14242;BME280;7205;50.864;12.766;2022-07-29T02:20:46;97586.28;;;18.03;46.37
14242;BME280;7205;50.864;12.766;2022-07-29T02:23:18;97597.81;;;18.03;46.53
14242;BME280;7205;50.864;12.766;2022-07-29T02:25:49;97589.78;;;18.03;46.35
14242;BME280;7205;50.864;12.766;2022-07-29T02:28:18;97593.47;;;18.02;46.34
14242;BME280;7205;50.864;12.766;2022-07-29T02:30:52;97587.53;;;18.00;46.59
14242;BME280;7205;50.864;12.766;2022-07-29T02:33:20;97592.88;;;18.00;46.62
14242;BME280;7205;50.864;12.766;2022-07-29T02:35:50;97587.75;;;17.99;46.55
14242;BME280;7205;50.864;12.766;2022-07-29T02:38:19;97588.00;;;17.97;46.58
14242;BME280;7205;50.864;12.766;2022-07-29T02:41:08;97586.59;;;17.95;46.57
14242;BME280;7205;50.864;12.766;2022-07-29T02:43:37;97588.66;;;17.93;46.79
14242;BME280;7205;50.864;12.766;2022-07-29T02:46:15;97583.56;;;17.91;46.81
14242;BME280;7205;50.864;12.766;2022-07-29T02:48:49;97581.91;;;17.90;46.62
14242;BME280;7205;50.864;12.766;2022-07-29T02:51:24;97582.13;;;17.89;46.78
14242;BME280;7205;50.864;12.766;2022-07-29T02:53:54;97587.25;;;17.90;47.15
14242;BME280;7205;50.864;12.766;2022-07-29T02:56:31;97587.25;;;17.90;47.12
14242;BME280;7205;50.864;12.766;2022-07-29T02:59:11;97581.09;;;17.90;47.27
14242;BME280;7205;50.864;12.766;2022-07-29T03:01:46;97581.91;;;17.90;47.28
14242;BME280;7205;50.864;12.766;2022-07-29T03:04:16;97577.38;;;17.91;47.33
14242;BME280;7205;50.864;12.766;2022-07-29T03:06:46;97580.88;;;17.91;47.16
14242;BME280;7205;50.864;12.766;2022-07-29T03:09:13;97579.00;;;17.92;47.13
14242;BME280;7205;50.864;12.766;2022-07-29T03:11:43;97578.81;;;17.93;47.31
14242;BME280;7205;50.864;12.766;2022-07-29T03:14:11;97577.16;;;17.92;47.23
14242;BME280;7205;50.864;12.766;2022-07-29T03:16:43;97574.47;;;17.92;47.37
14242;BME280;7205;50.864;12.766;2022-07-29T03:19:32;97580.44;;;17.94;47.60
14242;BME280;7205;50.864;12.766;2022-07-29T03:22:00;97576.69;;;17.95;47.60
14242;BME280;7205;50.864;12.766;2022-07-29T03:24:30;97577.06;;;17.99;47.69
14242;BME280;7205;50.864;12.766;2022-07-29T03:26:57;97576.84;;;18.00;47.81
14242;BME280;7205;50.864;12.766;2022-07-29T03:29:25;97577.44;;;18.02;47.87
14242;BME280;7205;50.864;12.766;2022-07-29T03:32:04;97575.38;;;18.04;48.03
14242;BME280;7205;50.864;12.766;2022-07-29T03:34:31;97567.13;;;18.06;47.91
14242;BME280;7205;50.864;12.766;2022-07-29T03:36:58;97569.56;;;18.07;47.84
14242;BME280;7205;50.864;12.766;2022-07-29T03:39:28;97570.19;;;18.09;47.99
14242;BME280;7205;50.864;12.766;2022-07-29T03:42:01;97576.94;;;18.12;47.89
14242;BME280;7205;50.864;12.766;2022-07-29T03:44:34;97579.41;;;18.13;48.07
14242;BME280;7205;50.864;12.766;2022-07-29T03:47:05;97577.28;;;18.15;48.04
14242;BME280;7205;50.864;12.766;2022-07-29T03:49:36;97579.75;;;18.17;48.03
14242;BME280;7205;50.864;12.766;2022-07-29T03:52:04;97579.53;;;18.18;48.24
14242;BME280;7205;50.864;12.766;2022-07-29T03:54:32;97579.31;;;18.20;48.28
14242;BME280;7205;50.864;12.766;2022-07-29T03:56:59;97580.94;;;18.21;48.25
14242;BME280;7205;50.864;12.766;2022-07-29T03:59:27;97583.59;;;18.21;48.20
14242;BME280;7205;50.864;12.766;2022-07-29T04:01:56;97581.53;;;18.23;48.27
14242;BME280;7205;50.864;12.766;2022-07-29T04:04:26;97585.59;;;18.25;48.32
14242;BME280;7205;50.864;12.766;2022-07-29T04:06:53;97593.41;;;18.27;48.48
14242;BME280;7205;50.864;12.766;2022-07-29T04:09:20;97594.81;;;18.29;48.45
14242;BME280;7205;50.864;12.766;2022-07-29T04:11:47;97593.56;;;18.32;48.72
14242;BME280;7205;50.864;12.766;2022-07-29T04:14:14;97598.69;;;18.33;48.86
14242;BME280;7205;50.864;12.766;2022-07-29T04:16:40;97596.38;;;18.37;48.96
14242;BME280;7205;50.864;12.766;2022-07-29T04:19:07;97601.06;;;18.41;48.95
14242;BME280;7205;50.864;12.766;2022-07-29T04:21:38;97597.34;;;18.42;48.96
14242;BME280;7205;50.864;12.766;2022-07-29T04:24:06;97590.75;;;18.45;48.90
14242;BME280;7205;50.864;12.766;2022-07-29T04:26:33;97599.13;;;18.48;48.96
14242;BME280;7205;50.864;12.766;2022-07-29T04:29:00;97599.69;;;18.50;48.85
14242;BME280;7205;50.864;12.766;2022-07-29T04:31:27;97605.41;;;18.54;48.97
14242;BME280;7205;50.864;12.766;2022-07-29T04:33:54;97601.50;;;18.56;48.93
14242;BME280;7205;50.864;12.766;2022-07-29T04:36:26;97601.03;;;18.59;49.02
14242;BME280;7205;50.864;12.766;2022-07-29T04:38:54;97588.84;;;18.63;48.90
14242;BME280;7205;50.864;12.766;2022-07-29T04:41:24;97597.22;;;18.67;49.07
14242;BME280;7205;50.864;12.766;2022-07-29T04:43:51;97594.09;;;18.70;48.91
14242;BME280;7205;50.864;12.766;2022-07-29T04:46:18;97589.13;;;18.73;49.23
14242;BME280;7205;50.864;12.766;2022-07-29T04:48:45;97586.34;;;18.80;49.33
14242;BME280;7205;50.864;12.766;2022-07-29T04:51:13;97590.53;;;18.88;49.52
14242;BME280;7205;50.864;12.766;2022-07-29T04:53:40;97581.38;;;18.95;49.37
14242;BME280;7205;50.864;12.766;2022-07-29T04:56:08;97581.63;;;19.05;49.48
14242;BME280;7205;50.864;12.766;2022-07-29T04:58:35;97587.22;;;19.15;49.67
14242;BME280;7205;50.864;12.766;2022-07-29T05:01:03;97581.91;;;19.27;49.77
14242;BME280;7205;50.864;12.766;2022-07-29T05:03:30;97586.47;;;19.38;49.69
14242;BME280;7205;50.864;12.766;2022-07-29T05:05:57;97584.63;;;19.50;49.65
14242;BME280;7205;50.864;12.766;2022-07-29T05:08:23;97591.63;;;19.62;49.72
14242;BME280;7205;50.864;12.766;2022-07-29T05:10:50;97593.47;;;19.73;49.69
14242;BME280;7205;50.864;12.766;2022-07-29T05:13:19;97590.53;;;19.86;49.64
14242;BME280;7205;50.864;12.766;2022-07-29T05:15:46;97589.00;;;20.02;49.52
14242;BME280;7205;50.864;12.766;2022-07-29T05:18:12;97589.34;;;20.17;49.44
14242;BME280;7205;50.864;12.766;2022-07-29T05:20:39;97598.53;;;20.33;49.19
14242;BME280;7205;50.864;12.766;2022-07-29T05:23:06;97594.50;;;20.47;48.63
14242;BME280;7205;50.864;12.766;2022-07-29T05:25:34;97595.88;;;20.61;48.36
14242;BME280;7205;50.864;12.766;2022-07-29T05:28:01;97596.88;;;20.71;48.03
14242;BME280;7205;50.864;12.766;2022-07-29T05:30:29;97600.56;;;20.82;47.70
14242;BME280;7205;50.864;12.766;2022-07-29T05:32:56;97597.25;;;20.91;47.56
14242;BME280;7205;50.864;12.766;2022-07-29T05:35:23;97593.97;;;21.01;47.47
14242;BME280;7205;50.864;12.766;2022-07-29T05:37:49;97596.00;;;21.10;47.58
14242;BME280;7205;50.864;12.766;2022-07-29T05:40:16;97595.34;;;21.20;47.42
14242;BME280;7205;50.864;12.766;2022-07-29T05:42:43;97600.88;;;21.30;47.48
14242;BME280;7205;50.864;12.766;2022-07-29T05:45:10;97592.19;;;21.40;47.37
14242;BME280;7205;50.864;12.766;2022-07-29T05:47:39;97601.00;;;21.52;47.32
14242;BME280;7205;50.864;12.766;2022-07-29T05:50:06;97593.09;;;21.62;47.30
14242;BME280;7205;50.864;12.766;2022-07-29T05:52:33;97604.53;;;21.74;47.21
14242;BME280;7205;50.864;12.766;2022-07-29T05:55:00;97602.34;;;21.87;46.94
14242;BME280;7205;50.864;12.766;2022-07-29T05:57:31;97594.75;;;22.01;46.65
14242;BME280;7205;50.864;12.766;2022-07-29T05:59:58;97597.06;;;22.14;46.44
14242;BME280;7205;50.864;12.766;2022-07-29T06:02:25;97602.88;;;22.27;46.13
14242;BME280;7205;50.864;12.766;2022-07-29T06:04:53;97596.06;;;22.42;45.70
14242;BME280;7205;50.864;12.766;2022-07-29T06:07:20;97596.53;;;22.55;45.48
14242;BME280;7205;50.864;12.766;2022-07-29T06:09:49;97598.00;;;22.68;44.66
14242;BME280;7205;50.864;12.766;2022-07-29T06:12:16;97594.63;;;22.77;44.42
14242;BME280;7205;50.864;12.766;2022-07-29T06:14:43;97599.03;;;22.88;44.31
14242;BME280;7205;50.864;12.766;2022-07-29T06:17:10;97594.00;;;22.97;43.84
14242;BME280;7205;50.864;12.766;2022-07-29T06:19:37;97608.09;;;23.04;43.42
14242;BME280;7205;50.864;12.766;2022-07-29T06:22:06;97606.00;;;23.11;43.28
14242;BME280;7205;50.864;12.766;2022-07-29T06:24:33;97606.59;;;23.18;43.21
14242;BME280;7205;50.864;12.766;2022-07-29T06:27:00;97607.22;;;23.25;43.06
14242;BME280;7205;50.864;12.766;2022-07-29T06:29:26;97603.28;;;23.32;43.02
14242;BME280;7205;50.864;12.766;2022-07-29T06:31:53;97597.41;;;23.40;42.81
14242;BME280;7205;50.864;12.766;2022-07-29T06:34:20;97604.50;;;23.51;42.59
14242;BME280;7205;50.864;12.766;2022-07-29T06:36:47;97599.69;;;23.58;42.63
14242;BME280;7205;50.864;12.766;2022-07-29T06:39:16;97600.03;;;23.67;42.39
14242;BME280;7205;50.864;12.766;2022-07-29T06:41:46;97597.09;;;23.74;41.88
14242;BME280;7205;50.864;12.766;2022-07-29T06:44:13;97597.44;;;23.82;41.80
14242;BME280;7205;50.864;12.766;2022-07-29T06:46:40;97593.16;;;23.86;41.84
14242;BME280;7205;50.864;12.766;2022-07-29T06:49:07;97594.25;;;23.90;41.53
14242;BME280;7205;50.864;12.766;2022-07-29T06:51:34;97596.16;;;23.95;41.27
14242;BME280;7205;50.864;12.766;2022-07-29T06:54:01;97603.50;;;23.99;41.17
14242;BME280;7205;50.864;12.766;2022-07-29T06:56:32;97604.59;;;24.03;40.97
14242;BME280;7205;50.864;12.766;2022-07-29T06:59:00;97609.75;;;24.10;41.20
14242;BME280;7205;50.864;12.766;2022-07-29T07:01:27;97608.19;;;24.19;40.97
14242;BME280;7205;50.864;12.766;2022-07-29T07:03:54;97603.13;;;24.27;40.96
14242;BME280;7205;50.864;12.766;2022-07-29T07:06:21;97606.69;;;24.38;40.78
14242;BME280;7205;50.864;12.766;2022-07-29T07:08:48;97605.91;;;24.47;40.47
14242;BME280;7205;50.864;12.766;2022-07-29T07:11:15;97611.59;;;24.56;40.01
14242;BME280;7205;50.864;12.766;2022-07-29T07:13:43;97606.22;;;24.61;39.79
14242;BME280;7205;50.864;12.766;2022-07-29T07:16:10;97605.41;;;24.65;39.66
14242;BME280;7205;50.864;12.766;2022-07-29T07:18:37;97611.66;;;24.66;39.72
14242;BME280;7205;50.864;12.766;2022-07-29T07:21:04;97610.31;;;24.68;39.86
14242;BME280;7205;50.864;12.766;2022-07-29T07:23:31;97611.97;;;24.69;39.84
14242;BME280;7205;50.864;12.766;2022-07-29T07:25:58;97601.72;;;24.71;39.60
14242;BME280;7205;50.864;12.766;2022-07-29T07:28:25;97599.81;;;24.77;39.64
14242;BME280;7205;50.864;12.766;2022-07-29T07:30:53;97602.00;;;24.85;39.83
14242;BME280;7205;50.864;12.766;2022-07-29T07:33:20;97606.91;;;24.93;39.61
14242;BME280;7205;50.864;12.766;2022-07-29T07:35:47;97605.81;;;25.04;39.19
14242;BME280;7205;50.864;12.766;2022-07-29T07:38:14;97603.13;;;25.14;39.27
14242;BME280;7205;50.864;12.766;2022-07-29T07:40:41;97606.66;;;25.25;39.33
14242;BME280;7205;50.864;12.766;2022-07-29T07:43:08;97607.72;;;25.34;38.91
14242;BME280;7205;50.864;12.766;2022-07-29T07:45:35;97608.59;;;25.39;38.66
14242;BME280;7205;50.864;12.766;2022-07-29T07:48:04;97609.13;;;25.41;38.73
14242;BME280;7205;50.864;12.766;2022-07-29T07:50:31;97604.00;;;25.40;38.23
14242;BME280;7205;50.864;12.766;2022-07-29T07:52:59;97618.28;;;25.30;38.14
14242;BME280;7205;50.864;12.766;2022-07-29T07:55:27;97615.31;;;25.17;38.48
14242;BME280;7205;50.864;12.766;2022-07-29T07:57:56;97615.28;;;25.02;38.38
14242;BME280;7205;50.864;12.766;2022-07-29T08:00:23;97610.09;;;24.85;38.43
14242;BME280;7205;50.864;12.766;2022-07-29T08:02:50;97610.00;;;24.65;38.67
14242;BME280;7205;50.864;12.766;2022-07-29T08:05:18;97610.47;;;24.42;38.95
14242;BME280;7205;50.864;12.766;2022-07-29T08:07:46;97609.03;;;24.19;39.17
14242;BME280;7205;50.864;12.766;2022-07-29T08:10:13;97601.88;;;23.98;39.80
14242;BME280;7205;50.864;12.766;2022-07-29T08:12:40;97607.66;;;23.80;39.95
14242;BME280;7205;50.864;12.766;2022-07-29T08:15:08;97606.50;;;23.66;40.48
14242;BME280;7205;50.864;12.766;2022-07-29T08:17:35;97612.31;;;23.53;40.67
14242;BME280;7205;50.864;12.766;2022-07-29T08:20:03;97606.53;;;23.39;40.64
14242;BME280;7205;50.864;12.766;2022-07-29T08:22:32;97615.03;;;23.26;41.07
14242;BME280;7205;50.864;12.766;2022-07-29T08:24:59;97610.94;;;23.19;41.38
14242;BME280;7205;50.864;12.766;2022-07-29T08:27:26;97614.38;;;23.14;41.44
14242;BME280;7205;50.864;12.766;2022-07-29T08:29:57;97604.06;;;23.06;41.82
14242;BME280;7205;50.864;12.766;2022-07-29T08:32:24;97608.41;;;23.07;42.03
14242;BME280;7205;50.864;12.766;2022-07-29T08:34:51;97608.63;;;23.06;42.24
14242;BME280;7205;50.864;12.766;2022-07-29T08:37:18;97602.72;;;23.04;42.48
14242;BME280;7205;50.864;12.766;2022-07-29T08:39:46;97599.50;;;23.07;42.54
14242;BME280;7205;50.864;12.766;2022-07-29T08:42:13;97606.25;;;23.09;42.52
14242;BME280;7205;50.864;12.766;2022-07-29T08:44:45;97601.16;;;23.13;42.56
14242;BME280;7205;50.864;12.766;2022-07-29T08:47:13;97606.28;;;23.14;42.59
14242;BME280;7205;50.864;12.766;2022-07-29T08:49:40;97604.97;;;23.17;42.74
14242;BME280;7205;50.864;12.766;2022-07-29T08:52:12;97606.09;;;23.21;42.50
14242;BME280;7205;50.864;12.766;2022-07-29T08:54:43;97606.66;;;23.23;42.48
14242;BME280;7205;50.864;12.766;2022-07-29T08:57:12;97611.06;;;23.29;42.67
14242;BME280;7205;50.864;12.766;2022-07-29T08:59:42;97605.72;;;23.34;42.57
14242;BME280;7205;50.864;12.766;2022-07-29T09:02:15;97590.63;;;23.38;42.36
14242;BME280;7205;50.864;12.766;2022-07-29T09:04:45;97597.19;;;23.47;42.58
14242;BME280;7205;50.864;12.766;2022-07-29T09:07:14;97591.88;;;23.57;42.34
14242;BME280;7205;50.864;12.766;2022-07-29T09:09:42;97601.13;;;23.66;42.51
14242;BME280;7205;50.864;12.766;2022-07-29T09:12:09;97593.31;;;23.75;42.05
14242;BME280;7205;50.864;12.766;2022-07-29T09:14:38;97597.16;;;23.84;41.96
14242;BME280;7205;50.864;12.766;2022-07-29T09:17:06;97591.84;;;23.94;42.04
14242;BME280;7205;50.864;12.766;2022-07-29T09:19:35;97588.41;;;24.03;41.67
14242;BME280;7205;50.864;12.766;2022-07-29T09:22:06;97583.88;;;24.14;41.51
14242;BME280;7205;50.864;12.766;2022-07-29T09:24:40;97585.81;;;24.23;41.06
14242;BME280;7205;50.864;12.766;2022-07-29T09:27:09;97586.16;;;24.37;41.34
14242;BME280;7205;50.864;12.766;2022-07-29T09:29:38;97583.22;;;24.53;41.05
14242;BME280;7205;50.864;12.766;2022-07-29T09:32:08;97580.88;;;24.72;41.11
14242;BME280;7205;50.864;12.766;2022-07-29T09:34:36;97582.03;;;24.91;40.64
14242;BME280;7205;50.864;12.766;2022-07-29T09:37:03;97584.47;;;25.13;40.25
14242;BME280;7205;50.864;12.766;2022-07-29T09:39:32;97583.41;;;25.34;39.97
14242;BME280;7205;50.864;12.766;2022-07-29T09:42:00;97586.41;;;25.57;39.37
14242;BME280;7205;50.864;12.766;2022-07-29T09:44:45;97580.44;;;25.80;38.69
14242;BME280;7205;50.864;12.766;2022-07-29T09:47:14;97573.91;;;26.07;38.92
14242;BME280;7205;50.864;12.766;2022-07-29T09:49:52;97572.72;;;26.28;38.63
14242;BME280;7205;50.864;12.766;2022-07-29T09:52:20;97569.91;;;26.53;37.93
14242;BME280;7205;50.864;12.766;2022-07-29T09:54:51;97569.88;;;26.68;37.66
14242;BME280;7205;50.864;12.766;2022-07-29T09:57:24;97560.06;;;26.77;37.34
14242;BME280;7205;50.864;12.766;2022-07-29T10:00:05;97559.50;;;26.80;37.07
14242;BME280;7205;50.864;12.766;2022-07-29T10:02:40;97567.31;;;26.86;36.74
14242;BME280;7205;50.864;12.766;2022-07-29T10:05:19;97566.53;;;26.86;36.61
14242;BME280;7205;50.864;12.766;2022-07-29T10:07:47;97557.00;;;26.88;36.56
14242;BME280;7205;50.864;12.766;2022-07-29T10:10:22;97565.44;;;26.87;36.39
14242;BME280;7205;50.864;12.766;2022-07-29T10:12:51;97558.38;;;26.91;36.42
14242;BME280;7205;50.864;12.766;2022-07-29T10:15:21;97561.06;;;26.91;36.00
14242;BME280;7205;50.864;12.766;2022-07-29T10:17:49;97555.63;;;26.96;36.20
14242;BME280;7205;50.864;12.766;2022-07-29T10:20:16;97547.66;;;27.04;36.14
14242;BME280;7205;50.864;12.766;2022-07-29T10:22:46;97543.53;;;27.17;35.96
14242;BME280;7205;50.864;12.766;2022-07-29T10:25:15;97546.69;;;27.34;35.88
14242;BME280;7205;50.864;12.766;2022-07-29T10:27:42;97536.44;;;27.55;35.70
14242;BME280;7205;50.864;12.766;2022-07-29T10:30:13;97530.31;;;27.73;34.72
14242;BME280;7205;50.864;12.766;2022-07-29T10:32:54;97538.84;;;27.85;34.86
14242;BME280;7205;50.864;12.766;2022-07-29T10:35:40;97532.25;;;27.96;34.79
14242;BME280;7205;50.864;12.766;2022-07-29T10:38:27;97531.53;;;28.09;34.79
14242;BME280;7205;50.864;12.766;2022-07-29T10:41:03;97528.94;;;28.22;34.21
14242;BME280;7205;50.864;12.766;2022-07-29T10:43:53;97529.34;;;28.34;34.04
14242;BME280;7205;50.864;12.766;2022-07-29T10:46:21;97527.00;;;28.47;33.77
14242;BME280;7205;50.864;12.766;2022-07-29T10:49:11;97521.25;;;28.53;33.69
14242;BME280;7205;50.864;12.766;2022-07-29T10:54:47;97528.38;;;28.86;32.87
14242;BME280;7205;50.864;12.766;2022-07-29T10:57:21;97524.38;;;28.97;32.51
14242;BME280;7205;50.864;12.766;2022-07-29T11:00:25;97530.44;;;29.13;32.81
14242;BME280;7205;50.864;12.766;2022-07-29T11:02:45;97528.50;;;29.32;33.14
14242;BME280;7205;50.864;12.766;2022-07-29T11:05:19;97522.91;;;29.56;32.36
14242;BME280;7205;50.864;12.766;2022-07-29T11:08:21;97519.84;;;29.76;31.54
14242;BME280;7205;50.864;12.766;2022-07-29T11:10:50;97523.06;;;30.05;31.10
14242;BME280;7205;50.864;12.766;2022-07-29T11:13:45;97514.91;;;30.18;30.50
14242;BME280;7205;50.864;12.766;2022-07-29T11:16:13;97503.91;;;30.37;30.24
14242;BME280;7205;50.864;12.766;2022-07-29T11:22:10;97507.38;;;30.64;29.90
14242;BME280;7205;50.864;12.766;2022-07-29T11:24:38;97503.44;;;30.70;29.40
14242;BME280;7205;50.864;12.766;2022-07-29T11:27:10;97509.88;;;30.74;29.20
14242;BME280;7205;50.864;12.766;2022-07-29T11:29:39;97507.06;;;30.80;29.30
14242;BME280;7205;50.864;12.766;2022-07-29T11:32:14;97506.22;;;30.93;29.34
14242;BME280;7205;50.864;12.766;2022-07-29T11:34:43;97498.31;;;31.05;29.45
14242;BME280;7205;50.864;12.766;2022-07-29T11:37:22;97499.16;;;31.14;28.94
14242;BME280;7205;50.864;12.766;2022-07-29T11:40:12;97496.81;;;31.21;28.68
14242;BME280;7205;50.864;12.766;2022-07-29T11:42:44;97505.56;;;31.31;28.84
14242;BME280;7205;50.864;12.766;2022-07-29T11:45:25;97491.00;;;31.36;29.10
14242;BME280;7205;50.864;12.766;2022-07-29T11:47:58;97486.34;;;31.36;28.94
14242;BME280;7205;50.864;12.766;2022-07-29T11:50:33;97498.16;;;31.32;28.70
14242;BME280;7205;50.864;12.766;2022-07-29T11:53:09;97484.03;;;31.30;28.23
14242;BME280;7205;50.864;12.766;2022-07-29T11:55:38;97487.84;;;31.29;28.51
14242;BME280;7205;50.864;12.766;2022-07-29T11:58:05;97491.09;;;31.31;28.56
14242;BME280;7205;50.864;12.766;2022-07-29T12:00:35;97488.88;;;31.33;28.23
14242;BME280;7205;50.864;12.766;2022-07-29T12:03:07;97477.34;;;31.36;28.55
14242;BME280;7205;50.864;12.766;2022-07-29T12:05:37;97472.56;;;31.41;28.29
14242;BME280;7205;50.864;12.766;2022-07-29T12:08:07;97475.47;;;31.45;28.07
14242;BME280;7205;50.864;12.766;2022-07-29T12:10:37;97477.88;;;31.46;28.23
14242;BME280;7205;50.864;12.766;2022-07-29T12:13:05;97462.47;;;31.50;28.36
14242;BME280;7205;50.864;12.766;2022-07-29T12:15:32;97462.50;;;31.59;28.42
14242;BME280;7205;50.864;12.766;2022-07-29T12:18:10;97479.72;;;31.59;27.88
14242;BME280;7205;50.864;12.766;2022-07-29T12:20:37;97466.88;;;31.60;27.55
14242;BME280;7205;50.864;12.766;2022-07-29T12:23:09;97460.47;;;31.64;27.94
14242;BME280;7205;50.864;12.766;2022-07-29T12:25:38;97464.66;;;31.70;28.11
14242;BME280;7205;50.864;12.766;2022-07-29T12:28:07;97464.03;;;31.73;27.87
14242;BME280;7205;50.864;12.766;2022-07-29T12:30:38;97469.66;;;31.77;27.93
14242;BME280;7205;50.864;12.766;2022-07-29T12:33:18;97458.72;;;31.77;27.53
14242;BME280;7205;50.864;12.766;2022-07-29T12:35:47;97465.69;;;31.83;27.31
14242;BME280;7205;50.864;12.766;2022-07-29T12:38:16;97465.69;;;31.83;27.53
14242;BME280;7205;50.864;12.766;2022-07-29T12:40:45;97455.06;;;31.81;27.67
14242;BME280;7205;50.864;12.766;2022-07-29T12:43:14;97458.41;;;31.78;27.38
14242;BME280;7205;50.864;12.766;2022-07-29T12:45:44;97456.97;;;31.72;27.64
14242;BME280;7205;50.864;12.766;2022-07-29T12:48:11;97455.00;;;31.64;27.10
14242;BME280;7205;50.864;12.766;2022-07-29T12:50:56;97455.09;;;31.51;27.58
14242;BME280;7205;50.864;12.766;2022-07-29T12:53:25;97457.97;;;31.46;27.22
14242;BME280;7205;50.864;12.766;2022-07-29T12:55:54;97456.00;;;31.38;27.78
14242;BME280;7205;50.864;12.766;2022-07-29T12:58:29;97454.28;;;31.28;27.81
14242;BME280;7205;50.864;12.766;2022-07-29T13:01:07;97462.13;;;31.21;27.72
14242;BME280;7205;50.864;12.766;2022-07-29T13:03:52;97461.56;;;31.11;28.18
14242;BME280;7205;50.864;12.766;2022-07-29T13:06:34;97460.50;;;30.98;28.15
14242;BME280;7205;50.864;12.766;2022-07-29T13:09:06;97467.97;;;30.84;28.43
14242;BME280;7205;50.864;12.766;2022-07-29T13:11:35;97472.63;;;30.70;28.48
14242;BME280;7205;50.864;12.766;2022-07-29T13:14:04;97479.25;;;30.55;28.67
14242;BME280;7205;50.864;12.766;2022-07-29T13:16:30;97476.84;;;30.40;28.80
14242;BME280;7205;50.864;12.766;2022-07-29T13:19:06;97481.00;;;30.24;29.22
14242;BME280;7205;50.864;12.766;2022-07-29T13:21:33;97474.63;;;30.15;29.76
14242;BME280;7205;50.864;12.766;2022-07-29T13:24:00;97481.91;;;30.06;30.99